sensor_id;sensor_type;location;lat;lon;timestamp;P1;durP1;ratioP1;P2;durP2;ratioP2
39492;SDS011;25176;51.060;3.720;2023-04-07T00:00:28;4.47;;;1.45;;
39492;SDS011;25176;51.060;3.720;2023-04-07T00:02:54;4.57;;;1.50;;
39492;SDS011;25176;51.060;3.720;2023-04-07T00:05:20;6.03;;;1.83;;
39492;SDS011;25176;51.060;3.720;2023-04-07T00:07:46;4.88;;;1.40;;
39492;SDS011;25176;51.060;3.720;2023-04-07T00:10:12;5.03;;;1.50;;
39492;SDS011;25176;51.060;3.720;2023-04-07T00:12:37;6.10;;;1.88;;
39492;SDS011;25176;51.060;3.720;2023-04-07T00:15:03;3.35;;;1.70;;
39492;SDS011;25176;51.060;3.720;2023-04-07T00:17:29;5.43;;;1.58;;
39492;SDS011;25176;51.060;3.720;2023-04-07T00:19:54;5.28;;;2.17;;
39492;SDS011;25176;51.060;3.720;2023-04-07T00:22:20;2.53;;;1.40;;
39492;SDS011;25176;51.060;3.720;2023-04-07T00:24:46;3.30;;;1.33;;
39492;SDS011;25176;51.060;3.720;2023-04-07T00:27:11;3.90;;;1.50;;
39492;SDS011;25176;51.060;3.720;2023-04-07T00:29:37;4.13;;;1.90;;
39492;SDS011;25176;51.060;3.720;2023-04-07T00:32:02;3.95;;;1.40;;
39492;SDS011;25176;51.060;3.720;2023-04-07T00:34:28;2.47;;;1.20;;
39492;SDS011;25176;51.060;3.720;2023-04-07T00:36:54;5.50;;;1.75;;
39492;SDS011;25176;51.060;3.720;2023-04-07T00:39:20;6.00;;;1.75;;
39492;SDS011;25176;51.060;3.720;2023-04-07T00:41:46;5.38;;;1.73;;
39492;SDS011;25176;51.060;3.720;2023-04-07T00:44:12;3.58;;;1.65;;
39492;SDS011;25176;51.060;3.720;2023-04-07T00:46:38;2.80;;;1.77;;
39492;SDS011;25176;51.060;3.720;2023-04-07T00:49:04;4.55;;;1.83;;
39492;SDS011;25176;51.060;3.720;2023-04-07T00:51:31;3.40;;;1.75;;
39492;SDS011;25176;51.060;3.720;2023-04-07T00:53:57;3.88;;;2.03;;
39492;SDS011;25176;51.060;3.720;2023-04-07T00:56:24;3.03;;;1.85;;
39492;SDS011;25176;51.060;3.720;2023-04-07T00:58:51;3.53;;;1.98;;
39492;SDS011;25176;51.060;3.720;2023-04-07T01:01:26;5.13;;;2.15;;
39492;SDS011;25176;51.060;3.720;2023-04-07T01:03:57;3.95;;;2.00;;
39492;SDS011;25176;51.060;3.720;2023-04-07T01:06:29;4.32;;;2.60;;
39492;SDS011;25176;51.060;3.720;2023-04-07T01:09:18;3.80;;;2.40;;
39492;SDS011;25176;51.060;3.720;2023-04-07T01:14:22;7.32;;;2.72;;
39492;SDS011;25176;51.060;3.720;2023-04-07T01:16:49;6.97;;;2.80;;
39492;SDS011;25176;51.060;3.720;2023-04-07T01:22:06;6.72;;;4.10;;
39492;SDS011;25176;51.060;3.720;2023-04-07T01:30:34;5.32;;;3.20;;
39492;SDS011;25176;51.060;3.720;2023-04-07T01:33:03;6.30;;;3.28;;
39492;SDS011;25176;51.060;3.720;2023-04-07T01:35:31;5.78;;;3.70;;
39492;SDS011;25176;51.060;3.720;2023-04-07T01:38:00;5.35;;;3.42;;
39492;SDS011;25176;51.060;3.720;2023-04-07T01:40:27;7.40;;;3.70;;
39492;SDS011;25176;51.060;3.720;2023-04-07T01:42:54;5.10;;;3.13;;
39492;SDS011;25176;51.060;3.720;2023-04-07T01:45:21;5.55;;;4.00;;
39492;SDS011;25176;51.060;3.720;2023-04-07T01:47:48;6.78;;;3.58;;
39492;SDS011;25176;51.060;3.720;2023-04-07T01:50:15;6.95;;;3.53;;
39492;SDS011;25176;51.060;3.720;2023-04-07T01:52:41;8.38;;;3.63;;
39492;SDS011;25176;51.060;3.720;2023-04-07T01:55:07;4.68;;;3.70;;
39492;SDS011;25176;51.060;3.720;2023-04-07T01:57:34;5.65;;;3.92;;
39492;SDS011;25176;51.060;3.720;2023-04-07T02:00:00;5.13;;;4.15;;
39492;SDS011;25176;51.060;3.720;2023-04-07T02:02:26;6.97;;;3.97;;
39492;SDS011;25176;51.060;3.720;2023-04-07T02:04:55;9.68;;;4.65;;
39492;SDS011;25176;51.060;3.720;2023-04-07T02:07:32;7.60;;;4.82;;
39492;SDS011;25176;51.060;3.720;2023-04-07T02:10:15;7.55;;;4.50;;
39492;SDS011;25176;51.060;3.720;2023-04-07T02:12:43;6.75;;;3.85;;
39492;SDS011;25176;51.060;3.720;2023-04-07T02:15:11;9.65;;;5.22;;
39492;SDS011;25176;51.060;3.720;2023-04-07T02:17:39;7.55;;;4.88;;
39492;SDS011;25176;51.060;3.720;2023-04-07T02:20:07;8.32;;;4.85;;
39492;SDS011;25176;51.060;3.720;2023-04-07T02:22:34;6.45;;;5.70;;
39492;SDS011;25176;51.060;3.720;2023-04-07T02:25:01;9.45;;;5.90;;
39492;SDS011;25176;51.060;3.720;2023-04-07T02:27:27;7.93;;;5.25;;
39492;SDS011;25176;51.060;3.720;2023-04-07T02:29:52;8.40;;;6.05;;
39492;SDS011;25176;51.060;3.720;2023-04-07T02:32:18;11.90;;;6.38;;
39492;SDS011;25176;51.060;3.720;2023-04-07T02:34:44;9.30;;;5.43;;
39492;SDS011;25176;51.060;3.720;2023-04-07T02:37:10;7.72;;;5.75;;
39492;SDS011;25176;51.060;3.720;2023-04-07T02:39:35;7.90;;;5.97;;
39492;SDS011;25176;51.060;3.720;2023-04-07T02:42:01;11.63;;;6.82;;
39492;SDS011;25176;51.060;3.720;2023-04-07T02:44:26;11.32;;;7.53;;
39492;SDS011;25176;51.060;3.720;2023-04-07T02:46:52;11.60;;;7.05;;
39492;SDS011;25176;51.060;3.720;2023-04-07T02:49:18;18.42;;;10.73;;
39492;SDS011;25176;51.060;3.720;2023-04-07T02:51:43;14.05;;;7.32;;
39492;SDS011;25176;51.060;3.720;2023-04-07T02:54:10;10.35;;;7.80;;
39492;SDS011;25176;51.060;3.720;2023-04-07T02:56:36;12.88;;;8.50;;
39492;SDS011;25176;51.060;3.720;2023-04-07T02:59:01;13.05;;;7.68;;
39492;SDS011;25176;51.060;3.720;2023-04-07T03:01:27;11.90;;;8.00;;
39492;SDS011;25176;51.060;3.720;2023-04-07T03:03:52;10.32;;;8.10;;
39492;SDS011;25176;51.060;3.720;2023-04-07T03:06:18;14.32;;;8.60;;
39492;SDS011;25176;51.060;3.720;2023-04-07T03:08:43;13.23;;;8.52;;
39492;SDS011;25176;51.060;3.720;2023-04-07T03:11:09;12.82;;;8.43;;
39492;SDS011;25176;51.060;3.720;2023-04-07T03:13:34;13.00;;;7.93;;
39492;SDS011;25176;51.060;3.720;2023-04-07T03:16:00;10.18;;;8.57;;
39492;SDS011;25176;51.060;3.720;2023-04-07T03:18:26;20.10;;;9.55;;
39492;SDS011;25176;51.060;3.720;2023-04-07T03:20:52;16.65;;;9.55;;
39492;SDS011;25176;51.060;3.720;2023-04-07T03:23:19;13.02;;;9.27;;
39492;SDS011;25176;51.060;3.720;2023-04-07T03:25:44;13.57;;;9.55;;
39492;SDS011;25176;51.060;3.720;2023-04-07T03:28:10;13.77;;;9.40;;
39492;SDS011;25176;51.060;3.720;2023-04-07T03:30:36;16.10;;;9.45;;
39492;SDS011;25176;51.060;3.720;2023-04-07T03:33:01;13.50;;;10.30;;
39492;SDS011;25176;51.060;3.720;2023-04-07T03:35:27;16.00;;;10.27;;
39492;SDS011;25176;51.060;3.720;2023-04-07T03:37:53;15.88;;;10.20;;
39492;SDS011;25176;51.060;3.720;2023-04-07T03:40:18;15.00;;;10.60;;
39492;SDS011;25176;51.060;3.720;2023-04-07T03:42:44;15.93;;;10.52;;
39492;SDS011;25176;51.060;3.720;2023-04-07T03:45:10;16.33;;;11.57;;
39492;SDS011;25176;51.060;3.720;2023-04-07T03:47:36;18.05;;;10.80;;
39492;SDS011;25176;51.060;3.720;2023-04-07T03:50:02;14.90;;;10.32;;
39492;SDS011;25176;51.060;3.720;2023-04-07T03:52:27;17.83;;;10.05;;
39492;SDS011;25176;51.060;3.720;2023-04-07T03:54:53;17.83;;;10.48;;
39492;SDS011;25176;51.060;3.720;2023-04-07T03:57:18;19.23;;;10.57;;
39492;SDS011;25176;51.060;3.720;2023-04-07T03:59:44;17.77;;;11.80;;
39492;SDS011;25176;51.060;3.720;2023-04-07T04:02:11;16.42;;;11.13;;
39492;SDS011;25176;51.060;3.720;2023-04-07T04:04:36;16.13;;;12.05;;
39492;SDS011;25176;51.060;3.720;2023-04-07T04:07:02;16.00;;;10.90;;
39492;SDS011;25176;51.060;3.720;2023-04-07T04:09:28;16.20;;;11.10;;
39492;SDS011;25176;51.060;3.720;2023-04-07T04:11:53;15.65;;;11.45;;
39492;SDS011;25176;51.060;3.720;2023-04-07T04:14:20;19.92;;;12.77;;
39492;SDS011;25176;51.060;3.720;2023-04-07T04:16:45;19.20;;;11.68;;
39492;SDS011;25176;51.060;3.720;2023-04-07T04:19:11;15.77;;;11.73;;
39492;SDS011;25176;51.060;3.720;2023-04-07T04:21:36;17.52;;;11.27;;
39492;SDS011;25176;51.060;3.720;2023-04-07T04:24:02;19.40;;;12.55;;
39492;SDS011;25176;51.060;3.720;2023-04-07T04:26:28;19.90;;;13.73;;
39492;SDS011;25176;51.060;3.720;2023-04-07T04:28:54;19.63;;;13.25;;
39492;SDS011;25176;51.060;3.720;2023-04-07T04:31:19;20.48;;;13.60;;
39492;SDS011;25176;51.060;3.720;2023-04-07T04:33:45;18.85;;;13.10;;
39492;SDS011;25176;51.060;3.720;2023-04-07T04:36:10;21.02;;;13.52;;
39492;SDS011;25176;51.060;3.720;2023-04-07T04:38:36;19.17;;;13.13;;
39492;SDS011;25176;51.060;3.720;2023-04-07T04:41:01;17.42;;;13.15;;
39492;SDS011;25176;51.060;3.720;2023-04-07T04:43:27;20.15;;;14.05;;
39492;SDS011;25176;51.060;3.720;2023-04-07T04:45:52;19.40;;;13.70;;
39492;SDS011;25176;51.060;3.720;2023-04-07T04:48:18;17.75;;;13.65;;
39492;SDS011;25176;51.060;3.720;2023-04-07T04:50:44;18.17;;;13.52;;
39492;SDS011;25176;51.060;3.720;2023-04-07T04:53:09;18.95;;;14.70;;
39492;SDS011;25176;51.060;3.720;2023-04-07T04:55:35;21.90;;;13.77;;
39492;SDS011;25176;51.060;3.720;2023-04-07T04:58:01;18.42;;;13.48;;
39492;SDS011;25176;51.060;3.720;2023-04-07T05:00:26;19.38;;;13.60;;
39492;SDS011;25176;51.060;3.720;2023-04-07T05:02:52;18.10;;;12.00;;
39492;SDS011;25176;51.060;3.720;2023-04-07T05:05:18;20.42;;;13.10;;
39492;SDS011;25176;51.060;3.720;2023-04-07T05:07:44;17.67;;;12.30;;
39492;SDS011;25176;51.060;3.720;2023-04-07T05:10:09;19.08;;;13.20;;
39492;SDS011;25176;51.060;3.720;2023-04-07T05:12:35;16.50;;;12.45;;
39492;SDS011;25176;51.060;3.720;2023-04-07T05:15:01;19.63;;;12.75;;
39492;SDS011;25176;51.060;3.720;2023-04-07T05:17:26;19.65;;;13.23;;
39492;SDS011;25176;51.060;3.720;2023-04-07T05:19:52;16.55;;;13.18;;
39492;SDS011;25176;51.060;3.720;2023-04-07T05:22:17;16.90;;;11.88;;
39492;SDS011;25176;51.060;3.720;2023-04-07T05:24:43;18.55;;;12.05;;
39492;SDS011;25176;51.060;3.720;2023-04-07T05:27:08;23.13;;;12.90;;
39492;SDS011;25176;51.060;3.720;2023-04-07T05:29:34;18.67;;;12.07;;
39492;SDS011;25176;51.060;3.720;2023-04-07T05:32:00;17.55;;;12.13;;
39492;SDS011;25176;51.060;3.720;2023-04-07T05:34:26;20.98;;;11.50;;
39492;SDS011;25176;51.060;3.720;2023-04-07T05:36:52;21.08;;;12.73;;
39492;SDS011;25176;51.060;3.720;2023-04-07T05:39:18;20.55;;;12.57;;
39492;SDS011;25176;51.060;3.720;2023-04-07T05:41:43;22.27;;;13.52;;
39492;SDS011;25176;51.060;3.720;2023-04-07T05:44:09;20.75;;;13.35;;
39492;SDS011;25176;51.060;3.720;2023-04-07T05:46:35;21.60;;;13.00;;
39492;SDS011;25176;51.060;3.720;2023-04-07T05:49:01;24.10;;;13.40;;
39492;SDS011;25176;51.060;3.720;2023-04-07T05:51:26;19.75;;;11.88;;
39492;SDS011;25176;51.060;3.720;2023-04-07T05:53:52;19.20;;;12.48;;
39492;SDS011;25176;51.060;3.720;2023-04-07T05:56:17;19.38;;;10.77;;
39492;SDS011;25176;51.060;3.720;2023-04-07T05:58:43;15.55;;;10.95;;
39492;SDS011;25176;51.060;3.720;2023-04-07T06:01:08;17.13;;;10.75;;
39492;SDS011;25176;51.060;3.720;2023-04-07T06:03:34;14.90;;;10.18;;
39492;SDS011;25176;51.060;3.720;2023-04-07T06:06:00;15.52;;;10.27;;
39492;SDS011;25176;51.060;3.720;2023-04-07T06:08:25;13.25;;;9.45;;
39492;SDS011;25176;51.060;3.720;2023-04-07T06:10:51;16.95;;;9.90;;
39492;SDS011;25176;51.060;3.720;2023-04-07T06:13:16;16.23;;;10.25;;
39492;SDS011;25176;51.060;3.720;2023-04-07T06:15:42;17.13;;;9.65;;
39492;SDS011;25176;51.060;3.720;2023-04-07T06:18:07;13.10;;;9.02;;
39492;SDS011;25176;51.060;3.720;2023-04-07T06:20:33;17.30;;;9.45;;
39492;SDS011;25176;51.060;3.720;2023-04-07T06:22:59;13.13;;;9.15;;
39492;SDS011;25176;51.060;3.720;2023-04-07T06:25:25;13.13;;;8.60;;
39492;SDS011;25176;51.060;3.720;2023-04-07T06:27:50;10.80;;;8.45;;
39492;SDS011;25176;51.060;3.720;2023-04-07T06:30:17;12.73;;;9.48;;
39492;SDS011;25176;51.060;3.720;2023-04-07T06:32:42;13.48;;;9.25;;
39492;SDS011;25176;51.060;3.720;2023-04-07T06:35:08;15.48;;;9.18;;
39492;SDS011;25176;51.060;3.720;2023-04-07T06:37:34;11.05;;;8.40;;
39492;SDS011;25176;51.060;3.720;2023-04-07T06:39:59;13.55;;;8.55;;
39492;SDS011;25176;51.060;3.720;2023-04-07T06:42:25;12.93;;;7.25;;
39492;SDS011;25176;51.060;3.720;2023-04-07T06:44:50;15.68;;;8.30;;
39492;SDS011;25176;51.060;3.720;2023-04-07T06:47:17;14.07;;;6.78;;
39492;SDS011;25176;51.060;3.720;2023-04-07T06:49:42;12.60;;;8.07;;
39492;SDS011;25176;51.060;3.720;2023-04-07T06:52:08;13.50;;;6.72;;
39492;SDS011;25176;51.060;3.720;2023-04-07T06:54:33;14.00;;;7.32;;
39492;SDS011;25176;51.060;3.720;2023-04-07T06:56:59;16.00;;;8.43;;
39492;SDS011;25176;51.060;3.720;2023-04-07T06:59:25;10.55;;;7.25;;
39492;SDS011;25176;51.060;3.720;2023-04-07T07:01:51;11.90;;;7.07;;
39492;SDS011;25176;51.060;3.720;2023-04-07T07:04:16;11.07;;;6.88;;
39492;SDS011;25176;51.060;3.720;2023-04-07T07:06:42;14.18;;;8.10;;
39492;SDS011;25176;51.060;3.720;2023-04-07T07:09:08;13.32;;;6.45;;
39492;SDS011;25176;51.060;3.720;2023-04-07T07:11:34;11.63;;;6.53;;
39492;SDS011;25176;51.060;3.720;2023-04-07T07:13:59;8.75;;;5.85;;
39492;SDS011;25176;51.060;3.720;2023-04-07T07:16:25;10.88;;;5.95;;
39492;SDS011;25176;51.060;3.720;2023-04-07T07:18:51;11.50;;;5.90;;
39492;SDS011;25176;51.060;3.720;2023-04-07T07:21:17;13.95;;;5.65;;
39492;SDS011;25176;51.060;3.720;2023-04-07T07:23:42;10.43;;;5.88;;
39492;SDS011;25176;51.060;3.720;2023-04-07T07:26:08;7.72;;;4.60;;
39492;SDS011;25176;51.060;3.720;2023-04-07T07:28:34;8.85;;;5.28;;
39492;SDS011;25176;51.060;3.720;2023-04-07T07:31:00;6.82;;;5.38;;
39492;SDS011;25176;51.060;3.720;2023-04-07T07:33:32;8.18;;;5.95;;
39492;SDS011;25176;51.060;3.720;2023-04-07T07:35:58;6.90;;;4.90;;
39492;SDS011;25176;51.060;3.720;2023-04-07T07:38:24;12.30;;;5.10;;
39492;SDS011;25176;51.060;3.720;2023-04-07T07:40:51;9.52;;;5.53;;
39492;SDS011;25176;51.060;3.720;2023-04-07T07:43:17;9.57;;;5.18;;
39492;SDS011;25176;51.060;3.720;2023-04-07T07:45:42;7.15;;;4.05;;
39492;SDS011;25176;51.060;3.720;2023-04-07T07:48:08;6.97;;;3.80;;
39492;SDS011;25176;51.060;3.720;2023-04-07T07:50:33;9.38;;;4.32;;
39492;SDS011;25176;51.060;3.720;2023-04-07T07:52:59;5.53;;;3.08;;
39492;SDS011;25176;51.060;3.720;2023-04-07T07:55:25;11.23;;;3.60;;
39492;SDS011;25176;51.060;3.720;2023-04-07T07:57:51;5.63;;;3.42;;
39492;SDS011;25176;51.060;3.720;2023-04-07T08:00:19;5.63;;;3.10;;
39492;SDS011;25176;51.060;3.720;2023-04-07T08:02:46;6.47;;;2.83;;
39492;SDS011;25176;51.060;3.720;2023-04-07T08:05:11;3.72;;;2.60;;
39492;SDS011;25176;51.060;3.720;2023-04-07T08:07:37;5.28;;;2.65;;
39492;SDS011;25176;51.060;3.720;2023-04-07T08:10:02;5.20;;;1.98;;
39492;SDS011;25176;51.060;3.720;2023-04-07T08:12:28;6.60;;;2.10;;
39492;SDS011;25176;51.060;3.720;2023-04-07T08:14:54;5.43;;;1.90;;
39492;SDS011;25176;51.060;3.720;2023-04-07T08:17:20;4.60;;;1.80;;
39492;SDS011;25176;51.060;3.720;2023-04-07T08:19:45;5.38;;;1.88;;
39492;SDS011;25176;51.060;3.720;2023-04-07T08:22:11;3.97;;;1.52;;
39492;SDS011;25176;51.060;3.720;2023-04-07T08:24:36;2.60;;;1.10;;
39492;SDS011;25176;51.060;3.720;2023-04-07T08:27:02;4.00;;;1.25;;
39492;SDS011;25176;51.060;3.720;2023-04-07T08:29:28;2.45;;;1.40;;
39492;SDS011;25176;51.060;3.720;2023-04-07T08:31:53;5.97;;;1.50;;
39492;SDS011;25176;51.060;3.720;2023-04-07T08:34:19;5.38;;;1.77;;
39492;SDS011;25176;51.060;3.720;2023-04-07T08:36:45;4.63;;;1.33;;
39492;SDS011;25176;51.060;3.720;2023-04-07T08:39:11;4.53;;;1.50;;
39492;SDS011;25176;51.060;3.720;2023-04-07T08:41:39;3.47;;;1.33;;
39492;SDS011;25176;51.060;3.720;2023-04-07T08:44:06;7.05;;;1.58;;
39492;SDS011;25176;51.060;3.720;2023-04-07T08:46:33;5.35;;;1.20;;
39492;SDS011;25176;51.060;3.720;2023-04-07T08:49:00;6.15;;;1.65;;
39492;SDS011;25176;51.060;3.720;2023-04-07T08:51:30;7.07;;;1.33;;
39492;SDS011;25176;51.060;3.720;2023-04-07T08:53:59;5.40;;;1.33;;
39492;SDS011;25176;51.060;3.720;2023-04-07T08:56:33;4.35;;;1.10;;
39492;SDS011;25176;51.060;3.720;2023-04-07T08:59:01;4.63;;;1.88;;
39492;SDS011;25176;51.060;3.720;2023-04-07T09:01:29;2.97;;;0.82;;
39492;SDS011;25176;51.060;3.720;2023-04-07T09:03:56;5.07;;;1.20;;
39492;SDS011;25176;51.060;3.720;2023-04-07T09:06:22;5.50;;;1.63;;
39492;SDS011;25176;51.060;3.720;2023-04-07T09:08:48;7.22;;;1.30;;
39492;SDS011;25176;51.060;3.720;2023-04-07T09:11:14;6.78;;;1.20;;
39492;SDS011;25176;51.060;3.720;2023-04-07T09:13:39;6.55;;;1.38;;
39492;SDS011;25176;51.060;3.720;2023-04-07T09:16:05;4.32;;;0.82;;
39492;SDS011;25176;51.060;3.720;2023-04-07T09:18:31;6.13;;;1.50;;
39492;SDS011;25176;51.060;3.720;2023-04-07T09:21:01;5.07;;;1.27;;
39492;SDS011;25176;51.060;3.720;2023-04-07T09:23:32;6.93;;;1.95;;
39492;SDS011;25176;51.060;3.720;2023-04-07T09:28:44;6.55;;;1.15;;
39492;SDS011;25176;51.060;3.720;2023-04-07T09:31:10;6.15;;;2.10;;
39492;SDS011;25176;51.060;3.720;2023-04-07T09:33:36;5.50;;;1.70;;
39492;SDS011;25176;51.060;3.720;2023-04-07T09:36:02;6.97;;;2.20;;
39492;SDS011;25176;51.060;3.720;2023-04-07T09:38:36;3.90;;;1.35;;
39492;SDS011;25176;51.060;3.720;2023-04-07T09:41:10;5.30;;;1.63;;
39492;SDS011;25176;51.060;3.720;2023-04-07T09:43:38;8.32;;;1.92;;
39492;SDS011;25176;51.060;3.720;2023-04-07T09:46:15;8.27;;;2.55;;
39492;SDS011;25176;51.060;3.720;2023-04-07T09:48:43;7.18;;;2.15;;
39492;SDS011;25176;51.060;3.720;2023-04-07T09:51:14;5.45;;;1.38;;
39492;SDS011;25176;51.060;3.720;2023-04-07T09:53:50;5.60;;;1.23;;
39492;SDS011;25176;51.060;3.720;2023-04-07T09:56:17;4.05;;;1.30;;
39492;SDS011;25176;51.060;3.720;2023-04-07T09:58:44;7.18;;;1.92;;
39492;SDS011;25176;51.060;3.720;2023-04-07T10:01:11;7.35;;;1.55;;
39492;SDS011;25176;51.060;3.720;2023-04-07T10:03:40;8.73;;;1.95;;
39492;SDS011;25176;51.060;3.720;2023-04-07T10:06:06;9.60;;;1.45;;
39492;SDS011;25176;51.060;3.720;2023-04-07T10:08:32;10.25;;;2.05;;
39492;SDS011;25176;51.060;3.720;2023-04-07T10:11:00;17.75;;;1.67;;
39492;SDS011;25176;51.060;3.720;2023-04-07T10:13:29;19.15;;;2.88;;
39492;SDS011;25176;51.060;3.720;2023-04-07T10:15:59;7.10;;;1.73;;
39492;SDS011;25176;51.060;3.720;2023-04-07T10:18:29;7.18;;;1.70;;
39492;SDS011;25176;51.060;3.720;2023-04-07T10:20:56;5.72;;;1.10;;
39492;SDS011;25176;51.060;3.720;2023-04-07T10:23:25;7.03;;;1.50;;
39492;SDS011;25176;51.060;3.720;2023-04-07T10:25:58;7.15;;;2.03;;
39492;SDS011;25176;51.060;3.720;2023-04-07T10:28:25;6.95;;;1.52;;
39492;SDS011;25176;51.060;3.720;2023-04-07T10:30:52;4.50;;;1.30;;
39492;SDS011;25176;51.060;3.720;2023-04-07T10:36:11;5.00;;;1.02;;
39492;SDS011;25176;51.060;3.720;2023-04-07T10:38:37;4.13;;;1.27;;
39492;SDS011;25176;51.060;3.720;2023-04-07T10:44:03;5.22;;;1.33;;
39492;SDS011;25176;51.060;3.720;2023-04-07T10:49:13;2.03;;;0.85;;
39492;SDS011;25176;51.060;3.720;2023-04-07T10:51:42;4.63;;;1.10;;
39492;SDS011;25176;51.060;3.720;2023-04-07T11:02:55;2.45;;;0.70;;
39492;SDS011;25176;51.060;3.720;2023-04-07T11:04:49;2.60;;;0.77;;
39492;SDS011;25176;51.060;3.720;2023-04-07T11:07:15;2.00;;;0.63;;
39492;SDS011;25176;51.060;3.720;2023-04-07T11:09:42;1.77;;;0.50;;
39492;SDS011;25176;51.060;3.720;2023-04-07T11:12:08;2.50;;;0.77;;
39492;SDS011;25176;51.060;3.720;2023-04-07T11:14:46;4.20;;;1.08;;
39492;SDS011;25176;51.060;3.720;2023-04-07T11:17:13;3.08;;;0.90;;
39492;SDS011;25176;51.060;3.720;2023-04-07T11:19:53;4.78;;;1.05;;
39492;SDS011;25176;51.060;3.720;2023-04-07T11:22:19;5.57;;;1.20;;
39492;SDS011;25176;51.060;3.720;2023-04-07T11:24:45;5.05;;;1.10;;
39492;SDS011;25176;51.060;3.720;2023-04-07T11:27:11;4.85;;;1.10;;
39492;SDS011;25176;51.060;3.720;2023-04-07T11:29:38;3.88;;;1.08;;
39492;SDS011;25176;51.060;3.720;2023-04-07T11:32:03;3.78;;;1.00;;
39492;SDS011;25176;51.060;3.720;2023-04-07T11:34:30;3.10;;;0.88;;
39492;SDS011;25176;51.060;3.720;2023-04-07T11:36:57;5.60;;;1.27;;
39492;SDS011;25176;51.060;3.720;2023-04-07T11:39:42;6.18;;;1.25;;
39492;SDS011;25176;51.060;3.720;2023-04-07T11:42:10;9.88;;;1.50;;
39492;SDS011;25176;51.060;3.720;2023-04-07T11:44:43;9.43;;;1.60;;
39492;SDS011;25176;51.060;3.720;2023-04-07T11:47:10;5.28;;;1.55;;
39492;SDS011;25176;51.060;3.720;2023-04-07T11:49:35;11.65;;;1.65;;
39492;SDS011;25176;51.060;3.720;2023-04-07T11:52:09;3.67;;;1.35;;
39492;SDS011;25176;51.060;3.720;2023-04-07T11:54:42;3.20;;;1.20;;
39492;SDS011;25176;51.060;3.720;2023-04-07T11:57:10;12.05;;;2.10;;
39492;SDS011;25176;51.060;3.720;2023-04-07T11:59:36;7.03;;;1.80;;
39492;SDS011;25176;51.060;3.720;2023-04-07T12:02:03;7.38;;;1.40;;
39492;SDS011;25176;51.060;3.720;2023-04-07T12:04:28;7.10;;;1.80;;
39492;SDS011;25176;51.060;3.720;2023-04-07T12:06:55;5.38;;;1.60;;
39492;SDS011;25176;51.060;3.720;2023-04-07T12:09:34;9.15;;;1.40;;
39492;SDS011;25176;51.060;3.720;2023-04-07T12:12:01;6.38;;;1.75;;
39492;SDS011;25176;51.060;3.720;2023-04-07T12:14:30;9.68;;;1.90;;
39492;SDS011;25176;51.060;3.720;2023-04-07T12:16:56;10.30;;;1.52;;
39492;SDS011;25176;51.060;3.720;2023-04-07T12:19:26;5.72;;;1.30;;
39492;SDS011;25176;51.060;3.720;2023-04-07T12:21:53;6.55;;;1.70;;
39492;SDS011;25176;51.060;3.720;2023-04-07T12:24:19;3.95;;;1.42;;
39492;SDS011;25176;51.060;3.720;2023-04-07T12:26:45;40.22;;;33.13;;
39492;SDS011;25176;51.060;3.720;2023-04-07T12:29:12;7.00;;;1.38;;
39492;SDS011;25176;51.060;3.720;2023-04-07T12:31:37;4.22;;;1.35;;
39492;SDS011;25176;51.060;3.720;2023-04-07T12:34:03;3.97;;;1.45;;
39492;SDS011;25176;51.060;3.720;2023-04-07T12:36:29;5.30;;;1.10;;
39492;SDS011;25176;51.060;3.720;2023-04-07T12:38:55;5.57;;;1.35;;
39492;SDS011;25176;51.060;3.720;2023-04-07T12:41:21;5.60;;;1.02;;
39492;SDS011;25176;51.060;3.720;2023-04-07T12:43:50;4.22;;;0.93;;
39492;SDS011;25176;51.060;3.720;2023-04-07T12:46:19;4.03;;;1.35;;
39492;SDS011;25176;51.060;3.720;2023-04-07T12:48:45;5.20;;;1.95;;
39492;SDS011;25176;51.060;3.720;2023-04-07T12:51:12;5.80;;;1.30;;
39492;SDS011;25176;51.060;3.720;2023-04-07T12:53:38;6.88;;;1.50;;
39492;SDS011;25176;51.060;3.720;2023-04-07T12:56:03;1.88;;;0.80;;
39492;SDS011;25176;51.060;3.720;2023-04-07T12:58:29;5.20;;;0.90;;
39492;SDS011;25176;51.060;3.720;2023-04-07T13:00:54;3.10;;;0.98;;
39492;SDS011;25176;51.060;3.720;2023-04-07T13:03:20;5.60;;;1.33;;
39492;SDS011;25176;51.060;3.720;2023-04-07T13:05:46;3.92;;;1.17;;
39492;SDS011;25176;51.060;3.720;2023-04-07T13:08:12;5.88;;;1.20;;
39492;SDS011;25176;51.060;3.720;2023-04-07T13:10:38;6.30;;;1.33;;
39492;SDS011;25176;51.060;3.720;2023-04-07T13:13:03;4.72;;;1.38;;
39492;SDS011;25176;51.060;3.720;2023-04-07T13:15:29;6.70;;;1.13;;
39492;SDS011;25176;51.060;3.720;2023-04-07T13:17:54;5.85;;;0.85;;
39492;SDS011;25176;51.060;3.720;2023-04-07T13:20:20;8.57;;;1.60;;
39492;SDS011;25176;51.060;3.720;2023-04-07T13:22:46;6.07;;;1.55;;
39492;SDS011;25176;51.060;3.720;2023-04-07T13:25:12;23.88;;;3.15;;
39492;SDS011;25176;51.060;3.720;2023-04-07T13:27:38;5.75;;;1.02;;
39492;SDS011;25176;51.060;3.720;2023-04-07T13:30:03;3.60;;;1.08;;
39492;SDS011;25176;51.060;3.720;2023-04-07T13:32:30;3.95;;;0.90;;
39492;SDS011;25176;51.060;3.720;2023-04-07T13:34:55;5.25;;;1.00;;
39492;SDS011;25176;51.060;3.720;2023-04-07T13:37:21;4.15;;;1.00;;
39492;SDS011;25176;51.060;3.720;2023-04-07T13:39:47;3.65;;;0.73;;
39492;SDS011;25176;51.060;3.720;2023-04-07T13:42:12;2.55;;;1.10;;
39492;SDS011;25176;51.060;3.720;2023-04-07T13:44:41;4.10;;;0.82;;
39492;SDS011;25176;51.060;3.720;2023-04-07T13:47:09;2.22;;;0.77;;
39492;SDS011;25176;51.060;3.720;2023-04-07T13:49:35;3.42;;;1.15;;
39492;SDS011;25176;51.060;3.720;2023-04-07T13:52:00;5.25;;;1.42;;
39492;SDS011;25176;51.060;3.720;2023-04-07T13:54:26;4.60;;;0.98;;
39492;SDS011;25176;51.060;3.720;2023-04-07T13:56:51;2.67;;;0.70;;
39492;SDS011;25176;51.060;3.720;2023-04-07T13:59:17;0.95;;;0.60;;
39492;SDS011;25176;51.060;3.720;2023-04-07T14:01:43;4.88;;;1.38;;
39492;SDS011;25176;51.060;3.720;2023-04-07T14:04:09;6.95;;;1.35;;
39492;SDS011;25176;51.060;3.720;2023-04-07T14:06:34;4.43;;;0.90;;
39492;SDS011;25176;51.060;3.720;2023-04-07T14:09:01;4.40;;;1.08;;
39492;SDS011;25176;51.060;3.720;2023-04-07T14:11:27;2.70;;;0.90;;
39492;SDS011;25176;51.060;3.720;2023-04-07T14:13:53;2.92;;;1.13;;
39492;SDS011;25176;51.060;3.720;2023-04-07T14:16:20;2.90;;;1.00;;
39492;SDS011;25176;51.060;3.720;2023-04-07T14:18:46;4.60;;;1.00;;
39492;SDS011;25176;51.060;3.720;2023-04-07T14:21:13;5.22;;;1.38;;
39492;SDS011;25176;51.060;3.720;2023-04-07T14:23:39;1.95;;;0.65;;
39492;SDS011;25176;51.060;3.720;2023-04-07T14:26:08;2.83;;;1.00;;
39492;SDS011;25176;51.060;3.720;2023-04-07T14:28:35;4.03;;;0.80;;
39492;SDS011;25176;51.060;3.720;2023-04-07T14:31:01;4.82;;;1.23;;
39492;SDS011;25176;51.060;3.720;2023-04-07T14:33:26;2.90;;;0.70;;
39492;SDS011;25176;51.060;3.720;2023-04-07T14:35:52;2.53;;;0.77;;
39492;SDS011;25176;51.060;3.720;2023-04-07T14:38:17;3.78;;;1.10;;
39492;SDS011;25176;51.060;3.720;2023-04-07T14:40:48;3.67;;;1.20;;
39492;SDS011;25176;51.060;3.720;2023-04-07T14:43:13;5.45;;;1.08;;
39492;SDS011;25176;51.060;3.720;2023-04-07T14:45:39;1.90;;;1.15;;
39492;SDS011;25176;51.060;3.720;2023-04-07T14:48:05;1.90;;;1.05;;
39492;SDS011;25176;51.060;3.720;2023-04-07T14:50:31;1.33;;;0.90;;
39492;SDS011;25176;51.060;3.720;2023-04-07T14:52:57;4.05;;;1.10;;
39492;SDS011;25176;51.060;3.720;2023-04-07T14:55:23;3.88;;;1.00;;
39492;SDS011;25176;51.060;3.720;2023-04-07T14:57:49;3.35;;;0.98;;
39492;SDS011;25176;51.060;3.720;2023-04-07T15:00:14;4.28;;;2.10;;
39492;SDS011;25176;51.060;3.720;2023-04-07T15:02:40;3.22;;;1.35;;
39492;SDS011;25176;51.060;3.720;2023-04-07T15:05:06;3.67;;;1.45;;
39492;SDS011;25176;51.060;3.720;2023-04-07T15:07:32;5.65;;;1.30;;